Time;durP1;ratioP1;P1;durP2;ratioP2;P2;SDS_P1;SDS_P2;PMS_P1;PMS_P2;Temp;Humidity;BMP_temperature;BMP_pressure;BME280_temperature;BME280_humidity;BME280_pressure;Samples;Min_cycle;Max_cycle;Signal;HPM_P1;HPM_P2
2022/08/04 00:02:58;;;;;;;;;1.00;1.00;;;;;30.91;41.48;100966.16;5016326;28;45403;-67
2022/08/04 00:05:42;;;;;;;;;2.33;2.33;;;;;31.00;41.57;100962.81;4987176;28;45423;-67
2022/08/04 00:08:43;;;;;;;;;2.00;2.00;;;;;30.87;41.76;100967.03;5019624;28;45368;-67
2022/08/04 00:11:09;;;;;;;;;4.00;3.00;;;;;30.84;41.57;100960.00;5010315;28;45473;-68
2022/08/04 00:13:41;;;;;;;;;2.33;2.33;;;;;30.90;41.47;100967.28;5023047;28;45549;-67
2022/08/04 00:16:09;;;;;;;;;1.67;1.67;;;;;30.90;41.44;100963.66;5020874;28;45332;-67
2022/08/04 00:19:08;;;;;;;;;2.33;2.33;;;;;30.97;41.16;100969.00;5030614;28;48167;-67
2022/08/04 00:21:38;;;;;;;;;2.00;1.00;;;;;31.01;41.37;100972.94;5009916;28;45665;-67
2022/08/04 00:24:04;;;;;;;;;2.00;2.00;;;;;31.02;40.34;100963.41;5018887;28;45335;-67
2022/08/04 00:26:31;;;;;;;;;2.67;1.33;;;;;31.05;40.96;100972.09;5017247;28;45542;-67
2022/08/04 00:28:57;;;;;;;;;3.33;2.00;;;;;30.83;41.69;100969.53;5013452;28;45626;-67
2022/08/04 00:31:25;;;;;;;;;4.00;4.00;;;;;30.77;41.88;100970.63;5018702;28;45402;-67
2022/08/04 00:33:50;;;;;;;;;2.00;2.00;;;;;30.58;42.39;100972.28;5010540;28;45422;-67
2022/08/04 00:36:17;;;;;;;;;3.67;3.00;;;;;30.60;41.76;100970.03;5019995;28;45322;-67
2022/08/04 00:38:43;;;;;;;;;2.33;2.33;;;;;30.66;42.43;100966.13;5015700;28;46461;-67
2022/08/04 00:41:31;;;;;;;;;1.00;1.00;;;;;30.64;42.42;100973.97;5020420;28;45409;-68
2022/08/04 00:44:29;;;;;;;;;3.00;3.00;;;;;30.60;42.37;100972.84;5016181;28;45160;-67
2022/08/04 00:47:11;;;;;;;;;1.33;1.33;;;;;30.64;42.20;100976.78;5015562;28;45354;-66
2022/08/04 00:50:21;;;;;;;;;2.00;2.00;;;;;30.55;43.08;100967.22;5020537;28;45430;-67
2022/08/04 00:53:00;;;;;;;;;2.33;2.33;;;;;30.42;42.60;100967.69;5015816;28;45313;-67
2022/08/04 00:55:44;;;;;;;;;6.33;2.00;;;;;30.48;43.28;100978.66;5021018;28;45422;-66
2022/08/04 00:58:25;;;;;;;;;2.00;2.00;;;;;30.47;42.93;100971.34;5017945;28;45611;-67
2022/08/04 01:01:23;;;;;;;;;3.00;2.00;;;;;30.43;42.74;100972.19;5020386;28;45265;-67
2022/08/04 01:04:07;;;;;;;;;1.67;1.67;;;;;30.51;42.48;100966.94;5016689;28;45699;-67
2022/08/04 01:06:44;;;;;;;;;5.00;3.00;;;;;30.39;43.58;100963.47;5019165;28;45566;-67
2022/08/04 01:09:16;;;;;;;;;3.33;3.00;;;;;30.35;44.08;100967.94;5019518;28;45347;-67
2022/08/04 01:12:08;;;;;;;;;2.00;2.00;;;;;30.35;43.83;100967.09;5015325;28;46395;-67
2022/08/04 01:15:04;;;;;;;;;4.00;3.00;;;;;30.25;44.92;100967.03;5022506;28;45356;-67
2022/08/04 01:17:56;;;;;;;;;2.67;2.67;;;;;30.23;45.21;100974.91;5016349;28;45393;-67
2022/08/04 01:20:24;;;;;;;;;3.33;2.00;;;;;30.08;46.34;100953.25;5021063;28;45319;-67
2022/08/04 01:23:31;;;;;;;;;1.00;1.00;;;;;29.75;47.19;100963.66;5016583;28;45429;-67
2022/08/04 01:26:08;;;;;;;;;3.67;3.00;;;;;29.61;47.97;100972.81;5016881;28;45524;-67
2022/08/04 01:28:54;;;;;;;;;2.67;2.67;;;;;29.69;47.45;100975.97;5015830;28;45351;-67
2022/08/04 01:31:38;;;;;;;;;3.33;3.33;;;;;29.67;48.00;100963.31;5009690;28;45312;-67
2022/08/04 01:34:10;;;;;;;;;3.00;3.00;;;;;29.57;48.35;100971.66;5011106;28;45541;-67
2022/08/04 01:36:41;;;;;;;;;3.00;2.00;;;;;29.42;48.60;100981.66;5016406;28;45378;-67
2022/08/04 01:41:56;;;;;;;;;2.00;2.00;;;;;29.53;48.72;100965.75;5020382;28;45422;-67
2022/08/04 01:44:23;;;;;;;;;4.00;2.00;;;;;29.49;48.79;100958.16;5020885;28;46097;-67
2022/08/04 01:46:49;;;;;;;;;2.00;2.00;;;;;29.49;48.98;100967.41;5019297;28;45438;-67
2022/08/04 01:49:19;;;;;;;;;1.00;1.00;;;;;29.49;49.59;100967.41;5020328;28;45227;-66
2022/08/04 01:51:48;;;;;;;;;3.00;3.00;;;;;29.37;49.51;100961.97;5014635;28;45488;-67
2022/08/04 01:54:16;;;;;;;;;3.00;3.00;;;;;29.34;49.62;100956.06;5019280;28;45437;-67
2022/08/04 01:56:43;;;;;;;;;4.67;3.00;;;;;29.24;50.04;100962.41;5011175;28;45395;-67
2022/08/04 01:59:12;;;;;;;;;5.67;3.33;;;;;29.19;50.29;100958.72;5022138;28;45482;-67
2022/08/04 02:01:38;;;;;;;;;5.00;3.67;;;;;28.99;51.21;100951.00;5013574;28;45482;-66
2022/08/04 02:04:03;;;;;;;;;3.00;2.67;;;;;28.97;51.64;100950.41;5024801;28;46538;-67
2022/08/04 02:06:38;;;;;;;;;5.33;4.00;;;;;28.95;51.69;100952.63;5021003;28;45395;-67
2022/08/04 02:09:12;;;;;;;;;4.00;4.00;;;;;29.01;51.27;100957.16;5019595;28;45276;-67
2022/08/04 02:11:44;;;;;;;;;4.33;2.67;;;;;29.15;50.44;100952.81;5019072;28;45485;-67
2022/08/04 02:14:39;;;;;;;;;4.67;4.67;;;;;29.08;50.84;100962.56;5023462;28;48472;-67
2022/08/04 02:17:28;;;;;;;;;3.67;2.33;;;;;29.44;50.35;100946.94;5017535;28;45287;-67
2022/08/04 02:20:07;;;;;;;;;3.00;3.00;;;;;29.13;49.96;100955.06;5016622;28;45263;-67
2022/08/04 02:22:39;;;;;;;;;4.33;4.33;;;;;29.01;51.35;100951.56;5017607;28;45403;-67
2022/08/04 02:25:10;;;;;;;;;2.33;1.67;;;;;29.00;50.77;100949.91;5019338;28;45315;-67
2022/08/04 02:28:03;;;;;;;;;4.33;4.00;;;;;28.77;51.50;100950.22;5018392;28;45525;-67
2022/08/04 02:30:46;;;;;;;;;2.00;2.00;;;;;28.66;51.92;100938.03;5017977;28;45185;-67
2022/08/04 02:33:15;;;;;;;;;5.33;4.33;;;;;28.57;52.61;100932.06;5012661;28;45398;-67
2022/08/04 02:35:45;;;;;;;;;3.67;3.00;;;;;28.32;53.26;100919.75;5017913;28;45512;-67
2022/08/04 02:38:22;;;;;;;;;4.00;4.00;;;;;28.38;52.87;100924.31;5016009;28;45307;-67
2022/08/04 02:40:52;;;;;;;;;6.33;4.33;;;;;28.56;52.74;100936.00;5022949;28;45216;-67
2022/08/04 02:43:19;;;;;;;;;4.00;4.00;;;;;28.77;51.98;100927.84;5024385;28;45445;-67
2022/08/04 02:45:46;;;;;;;;;4.00;4.00;;;;;28.78;51.46;100927.59;5021880;28;46471;-67
2022/08/04 02:48:13;;;;;;;;;6.00;4.00;;;;;28.62;51.90;100937.72;5023014;28;45354;-67
2022/08/04 02:50:42;;;;;;;;;4.00;4.00;;;;;28.82;51.16;100936.28;5022654;28;45220;-67
2022/08/04 02:53:13;;;;;;;;;5.67;4.00;;;;;28.84;51.61;100946.09;5020559;28;45610;-67
2022/08/04 02:55:43;;;;;;;;;3.00;3.00;;;;;28.73;51.84;100943.41;5021405;28;45351;-67
2022/08/04 02:58:09;;;;;;;;;4.00;3.00;;;;;28.42;53.21;100954.25;5019557;28;45497;-67
2022/08/04 03:00:36;;;;;;;;;4.33;3.33;;;;;28.50;52.82;100956.59;5022576;28;45211;-67
2022/08/04 03:03:09;;;;;;;;;1.33;1.00;;;;;28.39;53.51;100960.38;5023997;28;46158;-67
2022/08/04 03:06:09;;;;;;;;;4.00;4.00;;;;;28.52;52.56;100956.31;5020550;28;46343;-67
2022/08/04 03:08:53;;;;;;;;;6.67;4.33;;;;;28.42;53.06;100954.25;5015375;28;45423;-67
2022/08/04 03:11:37;;;;;;;;;5.00;5.00;;;;;28.42;53.04;100957.03;5027549;28;45363;-67
2022/08/04 03:14:14;;;;;;;;;3.00;3.00;;;;;28.31;52.98;100958.03;5024243;28;45335;-66
2022/08/04 03:17:09;;;;;;;;;4.33;4.33;;;;;28.37;53.20;100956.16;5016668;28;45465;-67
2022/08/04 03:20:01;;;;;;;;;5.00;5.00;;;;;28.40;52.78;100955.63;5012696;28;45647;-67
2022/08/04 03:23:06;;;;;;;;;4.00;4.00;;;;;28.43;52.76;100944.75;5014596;28;45311;-67
2022/08/04 03:25:52;;;;;;;;;5.00;5.00;;;;;28.31;53.23;100951.59;5017884;28;45379;-67
2022/08/04 03:28:17;;;;;;;;;4.00;4.00;;;;;28.10;54.22;100950.47;5019927;28;45459;-67
2022/08/04 03:31:31;;;;;;;;;5.00;3.00;;;;;28.06;54.31;100952.91;5019143;28;45492;-67
2022/08/04 03:34:09;;;;;;;;;5.00;5.00;;;;;28.28;53.47;100947.38;5012618;28;45304;-67
2022/08/04 03:36:34;;;;;;;;;7.00;7.00;;;;;28.47;52.19;100940.34;5018527;28;45507;-67
2022/08/04 03:39:27;;;;;;;;;5.00;5.00;;;;;28.55;52.05;100937.09;5017191;28;45451;-67
2022/08/04 03:42:05;;;;;;;;;8.67;4.67;;;;;28.36;52.73;100946.91;5019357;28;45309;-67
2022/08/04 03:44:51;;;;;;;;;7.00;6.00;;;;;28.00;54.02;100941.94;5023166;28;45347;-66
2022/08/04 03:47:44;;;;;;;;;6.33;5.33;;;;;27.80;55.17;100950.88;5021153;28;45373;-67
2022/08/04 03:50:36;;;;;;;;;7.00;4.00;;;;;27.90;54.55;100948.25;5011660;28;46102;-67
2022/08/04 03:53:21;;;;;;;;;6.00;4.33;;;;;27.78;55.11;100947.50;5020997;28;45628;-67
2022/08/04 03:56:05;;;;;;;;;6.67;5.67;;;;;27.71;55.30;100944.91;5020913;28;45173;-67
2022/08/04 03:58:59;;;;;;;;;5.00;5.00;;;;;27.91;54.79;100940.72;5012254;28;45316;-67
2022/08/04 04:01:30;;;;;;;;;3.00;3.00;;;;;28.12;53.41;100948.28;5002885;28;47508;-67
2022/08/04 04:04:14;;;;;;;;;3.67;3.67;;;;;28.18;52.73;100936.94;5021862;28;46212;-67
2022/08/04 04:06:51;;;;;;;;;5.00;3.00;;;;;28.30;52.34;100910.78;5018485;28;45569;-67
2022/08/04 04:09:37;;;;;;;;;3.67;3.67;;;;;28.36;52.20;100892.97;5018428;28;45335;-68
2022/08/04 04:12:18;;;;;;;;;6.67;4.33;;;;;28.38;52.08;100902.78;5012615;28;45472;-67
2022/08/04 04:14:55;;;;;;;;;6.33;6.33;;;;;28.07;54.00;100923.03;5033369;28;45977;-65
2022/08/04 04:17:23;;;;;;;;;3.00;3.00;;;;;27.75;55.30;100951.69;5014583;28;45262;-65
2022/08/04 04:20:09;;;;;;;;;7.00;5.00;;;;;27.98;53.66;100933.00;5021639;28;45484;-67
2022/08/04 04:22:51;;;;;;;;;3.67;3.67;;;;;27.87;54.99;100957.13;5013967;28;45280;-68
2022/08/04 04:25:31;;;;;;;;;4.33;4.33;;;;;27.71;55.86;100972.81;5018256;28;45319;-68
2022/08/04 04:28:23;;;;;;;;;5.33;5.33;;;;;27.74;55.23;100975.09;5017472;28;45300;-68
2022/08/04 04:31:26;;;;;;;;;3.33;3.33;;;;;27.80;54.64;100985.25;5021276;28;45684;-68
2022/08/04 04:34:09;;;;;;;;;7.00;6.00;;;;;27.92;54.34;100987.06;5016871;28;45592;-67
2022/08/04 04:37:32;;;;;;;;;5.67;5.33;;;;;27.88;54.45;100973.63;5015927;28;45485;-67
2022/08/04 04:40:00;;;;;;;;;4.67;4.67;;;;;27.79;54.38;100965.94;4949280;28;45310;-67
2022/08/04 04:42:42;;;;;;;;;7.33;4.67;;;;;27.92;53.51;100956.34;4957338;28;45541;-67
2022/08/04 04:45:23;;;;;;;;;5.33;5.33;;;;;27.75;54.34;100974.00;4998011;28;46508;-67
2022/08/04 04:48:17;;;;;;;;;4.00;4.00;;;;;27.71;54.45;100995.16;5020438;28;45358;-67
2022/08/04 04:51:04;;;;;;;;;6.33;6.00;;;;;27.58;55.35;101009.47;5015149;28;45344;-66
2022/08/04 04:53:48;;;;;;;;;6.00;5.00;;;;;27.63;57.53;101009.53;5010916;28;45415;-67
2022/08/04 04:56:24;;;;;;;;;7.00;7.00;;;;;27.53;63.91;101012.19;5017995;28;46417;-67
2022/08/04 04:58:53;;;;;;;;;10.00;4.00;;;;;27.34;65.16;101030.22;5019672;28;45419;-68
2022/08/04 05:01:43;;;;;;;;;4.00;4.00;;;;;27.42;67.03;101032.59;5019674;28;45328;-67
2022/08/04 05:04:26;;;;;;;;;5.33;5.33;;;;;27.23;64.77;101039.50;5022337;28;45471;-68
2022/08/04 05:07:09;;;;;;;;;7.00;5.33;;;;;27.05;61.96;101044.19;5012902;28;46482;-68
2022/08/04 05:10:10;;;;;;;;;6.33;5.33;;;;;26.95;67.55;101020.88;5013149;28;45356;-68
2022/08/04 05:12:56;;;;;;;;;10.00;8.00;;;;;26.86;66.89;100998.06;5016091;28;45463;-68
2022/08/04 05:15:27;;;;;;;;;6.00;6.00;;;;;26.73;66.80;100998.38;5017790;28;45227;-68
2022/08/04 05:17:56;;;;;;;;;8.67;7.33;;;;;26.66;66.04;100997.69;5015355;28;45449;-68
2022/08/04 05:20:32;;;;;;;;;11.67;8.33;;;;;26.75;65.29;101007.31;5036147;28;45262;-69
2022/08/04 05:23:07;;;;;;;;;10.33;7.00;;;;;26.92;64.74;101025.00;5027227;28;45275;-68
2022/08/04 05:25:57;;;;;;;;;8.67;5.67;;;;;27.04;66.51;101027.72;5017674;28;45696;-68
2022/08/04 05:28:36;;;;;;;;;10.00;8.00;;;;;26.71;63.02;101014.50;5017617;28;45434;-69
2022/08/04 05:31:09;;;;;;;;;7.67;6.33;;;;;26.65;64.35;101013.56;5018758;28;45284;-69
2022/08/04 05:34:09;;;;;;;;;5.33;5.33;;;;;26.77;62.53;101021.88;5018543;28;45364;-69
2022/08/04 05:36:41;;;;;;;;;7.00;5.33;;;;;26.60;62.86;101030.16;5012625;28;45514;-68
2022/08/04 05:39:14;;;;;;;;;6.33;5.33;;;;;26.62;62.24;101021.56;5020131;28;46531;-68
2022/08/04 05:41:42;;;;;;;;;7.33;5.33;;;;;26.63;61.71;101035.25;5018885;28;45486;-68
2022/08/04 05:44:09;;;;;;;;;5.00;5.00;;;;;26.60;61.21;101034.88;5016610;28;45390;-68
2022/08/04 05:46:35;;;;;;;;;4.00;4.00;;;;;26.57;60.82;101040.97;5022073;28;45292;-68
2022/08/04 05:49:01;;;;;;;;;6.00;4.67;;;;;26.69;62.27;101039.84;5014385;28;46224;-69
2022/08/04 05:51:28;;;;;;;;;9.67;8.67;;;;;26.72;62.43;101033.78;5020301;28;46545;-68
2022/08/04 05:53:54;;;;;;;;;5.67;5.67;;;;;26.66;61.61;101022.78;5030669;28;45401;-68
2022/08/04 05:56:21;;;;;;;;;7.33;5.67;;;;;26.68;60.36;101015.00;5023072;28;45455;-68
2022/08/04 05:58:47;;;;;;;;;6.33;5.00;;;;;26.99;59.69;101022.91;5031257;28;47412;-68
2022/08/04 06:01:15;;;;;;;;;4.33;4.00;;;;;27.10;58.65;101012.78;5022038;28;45336;-68
2022/08/04 06:03:42;;;;;;;;;6.00;4.00;;;;;27.29;57.24;101010.59;5016690;28;45403;-68
2022/08/04 06:06:10;;;;;;;;;4.33;4.00;;;;;27.31;57.10;101014.00;5021502;28;45326;-68
2022/08/04 06:08:35;;;;;;;;;5.67;4.00;;;;;27.37;56.92;101019.41;5038577;28;48014;-68
2022/08/04 06:11:04;;;;;;;;;8.33;6.00;;;;;27.41;56.50;101020.59;5014749;28;47660;-67
2022/08/04 06:13:38;;;;;;;;;6.33;5.00;;;;;27.64;55.76;101019.59;5020565;28;45755;-67
2022/08/04 06:16:07;;;;;;;;;7.67;6.00;;;;;27.51;56.57;101031.94;5018844;28;45341;-67
2022/08/04 06:18:34;;;;;;;;;6.33;4.00;;;;;27.49;56.51;101042.50;5019317;28;45683;-68
2022/08/04 06:21:03;;;;;;;;;4.00;4.00;;;;;27.51;56.29;101042.25;5019416;28;45236;-68
2022/08/04 06:23:30;;;;;;;;;7.33;7.33;;;;;27.10;56.91;101038.72;5022585;28;45300;-69
2022/08/04 06:25:58;;;;;;;;;4.33;4.33;;;;;27.34;56.29;101030.22;5020778;28;45391;-68
2022/08/04 06:28:26;;;;;;;;;7.00;4.33;;;;;27.60;55.19;101020.38;5021900;28;45381;-67
2022/08/04 06:30:54;;;;;;;;;7.67;6.33;;;;;27.69;54.33;101016.88;5021030;28;45326;-67
2022/08/04 06:33:32;;;;;;;;;8.33;6.00;;;;;27.89;53.35;101025.59;5034641;28;45375;-67
2022/08/04 06:35:59;;;;;;;;;7.00;5.00;;;;;27.97;53.89;101024.31;5020739;28;45480;-67
2022/08/04 06:38:27;;;;;;;;;3.33;3.33;;;;;27.81;54.46;101028.81;5018089;28;45491;-67
2022/08/04 06:40:54;;;;;;;;;7.33;6.67;;;;;27.88;52.92;101034.22;5020840;28;45398;-67
2022/08/04 06:43:21;;;;;;;;;5.00;5.00;;;;;27.66;52.84;101027.72;5015889;28;45404;-67
2022/08/04 06:45:47;;;;;;;;;4.33;4.00;;;;;27.82;53.01;101024.94;5020828;28;45360;-68
2022/08/04 06:48:15;;;;;;;;;4.00;4.00;;;;;27.86;52.03;101028.03;5014238;28;45281;-68
2022/08/04 06:50:44;;;;;;;;;4.67;4.67;;;;;27.93;52.26;101037.09;5019836;28;45683;-67
2022/08/04 06:53:10;;;;;;;;;4.33;4.33;;;;;28.02;52.00;101043.09;5018988;28;45305;-67
2022/08/04 06:55:37;;;;;;;;;4.33;4.33;;;;;28.24;51.18;101044.00;5018439;28;45340;-68
2022/08/04 06:58:02;;;;;;;;;6.67;5.00;;;;;28.51;50.71;101046.88;5016354;28;45478;-67
2022/08/04 07:00:29;;;;;;;;;4.67;4.00;;;;;28.70;50.17;101058.59;5022065;28;45899;-68
2022/08/04 07:02:56;;;;;;;;;3.00;3.00;;;;;28.74;50.07;101056.97;5015916;28;45259;-67
2022/08/04 07:05:22;;;;;;;;;5.00;5.00;;;;;29.00;49.49;101050.59;5022028;28;45284;-68
2022/08/04 07:07:48;;;;;;;;;8.33;5.67;;;;;29.17;48.62;101056.09;5014024;28;45726;-68
2022/08/04 07:10:15;;;;;;;;;5.67;4.00;;;;;29.45;47.80;101047.44;5020266;28;45394;-68
2022/08/04 07:12:42;;;;;;;;;6.00;4.33;;;;;29.44;47.44;101061.72;5016327;28;45409;-69
2022/08/04 07:15:08;;;;;;;;;4.00;4.00;;;;;29.59;47.42;101062.69;5024382;28;45556;-69
2022/08/04 07:17:37;;;;;;;;;5.00;5.00;;;;;29.53;47.51;101060.09;5018281;28;48175;-68
2022/08/04 07:20:04;;;;;;;;;6.00;6.00;;;;;29.30;48.46;101070.50;5023751;28;45191;-68
2022/08/04 07:22:30;;;;;;;;;3.00;3.00;;;;;29.62;47.00;101067.75;5014461;28;45771;-68
2022/08/04 07:24:57;;;;;;;;;4.00;3.67;;;;;29.72;47.18;101073.47;5023445;28;45423;-69
2022/08/04 07:27:24;;;;;;;;;4.00;4.00;;;;;29.91;46.75;101075.81;5016902;28;45354;-66
2022/08/04 07:29:50;;;;;;;;;5.33;4.00;;;;;29.73;46.99;101074.31;5023101;28;45323;-67
2022/08/04 07:32:19;;;;;;;;;5.00;5.00;;;;;29.76;47.15;101079.34;5010702;28;45412;-67
2022/08/04 07:34:47;;;;;;;;;5.00;3.33;;;;;29.86;47.06;101065.44;5019608;28;45477;-67
2022/08/04 07:37:13;;;;;;;;;6.00;5.00;;;;;30.02;46.78;101060.81;5017363;28;45453;-67
2022/08/04 07:39:39;;;;;;;;;7.67;6.33;;;;;30.15;46.25;101069.59;5018323;28;45368;-67
2022/08/04 07:42:05;;;;;;;;;5.00;4.33;;;;;29.75;47.01;101074.84;5017184;28;45427;-67
2022/08/04 07:44:32;;;;;;;;;7.33;4.33;;;;;30.04;47.00;101084.66;5017106;28;45310;-68
2022/08/04 07:46:59;;;;;;;;;3.33;2.00;;;;;29.89;47.00;101087.28;5017301;28;46153;-68
2022/08/04 07:49:25;;;;;;;;;8.67;7.33;;;;;29.85;47.71;101102.13;5014621;28;45429;-68
2022/08/04 07:51:52;;;;;;;;;7.33;5.33;;;;;29.86;48.17;101092.59;5016278;28;45556;-68
2022/08/04 07:54:18;;;;;;;;;5.00;5.00;;;;;30.07;47.76;101092.53;5012090;28;45315;-68
2022/08/04 07:56:44;;;;;;;;;4.00;3.67;;;;;30.11;47.49;101085.25;5016405;28;45504;-70
2022/08/04 07:59:10;;;;;;;;;5.00;4.00;;;;;29.74;48.76;101096.41;5019462;28;45257;-69
2022/08/04 08:01:36;;;;;;;;;6.00;4.67;;;;;29.07;50.28;101098.81;5018587;28;45303;-69
2022/08/04 08:04:05;;;;;;;;;2.67;2.67;;;;;29.56;49.14;101098.78;5016454;28;45569;-68
2022/08/04 08:06:31;;;;;;;;;2.00;2.00;;;;;29.44;48.47;101098.13;5018488;28;46120;-67
2022/08/04 08:08:58;;;;;;;;;4.00;3.00;;;;;28.89;51.24;101110.31;5013056;28;45905;-68
2022/08/04 08:11:24;;;;;;;;;3.33;3.33;;;;;28.69;51.72;101110.88;5019534;28;45321;-67
2022/08/04 08:13:49;;;;;;;;;5.00;3.00;;;;;28.66;51.42;101134.59;5015581;28;45237;-68
2022/08/04 08:16:15;;;;;;;;;3.33;3.00;;;;;29.10;50.38;101131.00;5020320;28;45171;-68
2022/08/04 08:18:41;;;;;;;;;7.00;5.00;;;;;29.11;50.61;101124.28;5017373;28;45313;-68
2022/08/04 08:21:07;;;;;;;;;10.00;4.00;;;;;29.17;51.01;101135.28;5019188;28;45675;-68
2022/08/04 08:23:34;;;;;;;;;7.67;3.33;;;;;29.09;52.48;101124.53;5016553;28;45461;-68
2022/08/04 08:26:00;;;;;;;;;4.00;2.67;;;;;29.15;53.50;101128.28;5015008;28;45418;-68
2022/08/04 08:28:26;;;;;;;;;4.67;3.67;;;;;29.09;54.61;101120.91;5021331;28;45296;-69
2022/08/04 08:30:51;;;;;;;;;5.00;5.00;;;;;28.85;55.08;101120.34;5018102;28;45321;-69
2022/08/04 08:33:18;;;;;;;;;6.33;4.00;;;;;28.87;57.39;101120.91;5015726;28;45333;-69
2022/08/04 08:35:46;;;;;;;;;4.33;4.33;;;;;28.60;59.87;101141.22;5020599;28;47132;-69
2022/08/04 08:38:14;;;;;;;;;7.00;5.33;;;;;28.50;60.42;101141.06;5015937;28;44769;-69
2022/08/04 08:40:51;;;;;;;;;5.00;5.00;;;;;28.73;58.81;101147.53;5019076;28;45426;-68
2022/08/04 08:43:39;;;;;;;;;5.00;5.00;;;;;28.77;58.24;101137.59;5014505;28;45272;-67
2022/08/04 08:46:35;;;;;;;;;5.33;4.33;;;;;28.63;57.40;101123.09;5004634;28;45645;-68
2022/08/04 08:49:22;;;;;;;;;6.67;5.00;;;;;28.77;56.48;101099.28;5025960;28;45559;-69
2022/08/04 08:52:09;;;;;;;;;6.00;6.00;;;;;28.97;55.96;101096.72;5017569;28;45367;-69
2022/08/04 08:54:51;;;;;;;;;3.00;3.00;;;;;29.23;54.63;101111.84;5019306;28;45372;-68
2022/08/04 08:57:25;;;;;;;;;2.33;2.33;;;;;29.24;53.96;101133.13;5012110;28;48018;-68
2022/08/04 09:00:02;;;;;;;;;3.00;1.00;;;;;29.38;53.52;101137.22;5011051;28;45450;-69
2022/08/04 09:02:51;;;;;;;;;3.67;3.33;;;;;29.39;52.95;101144.53;5012289;28;45403;-68
2022/08/04 09:05:41;;;;;;;;;4.00;3.33;;;;;29.46;52.76;101140.66;5027998;28;45375;-68
2022/08/04 09:08:07;;;;;;;;;4.67;3.00;;;;;29.32;52.59;101129.84;5015261;28;45559;-68
2022/08/04 09:10:37;;;;;;;;;3.00;2.67;;;;;29.28;52.83;101116.66;5017784;28;45355;-68
2022/08/04 09:13:12;;;;;;;;;5.00;2.00;;;;;29.39;52.73;101119.31;5015033;28;45465;-67
2022/08/04 09:15:43;;;;;;;;;7.33;4.00;;;;;29.36;52.41;101128.28;5016092;28;45484;-68
2022/08/04 09:18:44;;;;;;;;;4.33;2.00;;;;;29.41;52.79;101139.50;5016906;28;45468;-68
2022/08/04 09:21:24;;;;;;;;;3.00;2.00;;;;;29.24;53.24;101146.25;5006869;28;45584;-68
2022/08/04 09:24:13;;;;;;;;;4.33;4.33;;;;;29.50;53.14;101151.09;5014544;28;45441;-69
2022/08/04 09:26:57;;;;;;;;;7.00;6.67;;;;;29.77;51.65;101139.88;5015882;28;45386;-67
2022/08/04 09:29:35;;;;;;;;;3.33;3.33;;;;;30.05;50.21;101139.56;5021955;28;45453;-67
2022/08/04 09:32:35;;;;;;;;;1.67;1.67;;;;;30.05;50.29;101145.19;5006222;28;45388;-67
2022/08/04 09:35:33;;;;;;;;;2.67;2.00;;;;;29.89;51.58;101154.53;4994441;28;45459;-67
2022/08/04 09:38:36;;;;;;;;;1.67;1.67;;;;;30.23;50.54;101154.28;5012282;28;45342;-67
2022/08/04 09:41:32;;;;;;;;;3.00;3.00;;;;;30.47;49.39;101161.19;5019903;28;45558;-68
2022/08/04 09:44:10;;;;;;;;;5.00;3.00;;;;;30.45;49.56;101164.28;5013082;28;45386;-69
2022/08/04 09:46:44;;;;;;;;;5.00;3.33;;;;;30.14;50.07;101165.16;5015351;28;45329;-68
2022/08/04 09:49:15;;;;;;;;;1.67;1.67;;;;;30.65;49.43;101160.78;5015631;28;45538;-68
2022/08/04 09:51:57;;;;;;;;;2.00;2.00;;;;;30.80;49.17;101160.88;5014972;28;45458;-68
2022/08/04 09:54:47;;;;;;;;;3.67;2.33;;;;;30.69;49.43;101155.44;5011375;28;45281;-67
2022/08/04 09:57:43;;;;;;;;;2.67;2.67;;;;;30.88;49.11;101156.69;5019054;28;45429;-70
2022/08/04 10:00:12;;;;;;;;;3.67;3.67;;;;;30.84;49.11;101145.16;5026822;28;45535;-67
2022/08/04 10:02:53;;;;;;;;;3.67;3.67;;;;;31.15;48.03;101148.13;5009526;28;46336;-68
2022/08/04 10:05:25;;;;;;;;;2.00;2.00;;;;;31.04;48.16;101155.66;5019077;28;45586;-67
2022/08/04 10:07:53;;;;;;;;;4.00;4.00;;;;;30.84;49.42;101156.38;5028364;28;45326;-67
2022/08/04 10:10:44;;;;;;;;;1.00;1.00;;;;;31.47;47.02;101153.56;5006191;28;45466;-68
2022/08/04 10:13:18;;;;;;;;;1.00;1.00;;;;;31.56;47.08;101157.53;5017008;28;46338;-67
2022/08/04 10:16:16;;;;;;;;;2.00;2.00;;;;;31.39;47.51;101145.69;5019828;28;45249;-68
2022/08/04 10:18:49;;;;;;;;;2.33;2.33;;;;;31.38;47.51;101144.84;5017183;28;45557;-69
2022/08/04 10:21:15;;;;;;;;;2.33;1.67;;;;;31.23;47.89;101147.59;5022171;28;46054;-68
2022/08/04 10:24:06;;;;;;;;;2.00;2.00;;;;;31.26;48.04;101144.25;5016367;28;45541;-68
2022/08/04 10:27:03;;;;;;;;;1.00;1.00;;;;;31.05;48.82;101150.88;5015361;28;45398;-68
2022/08/04 10:29:43;;;;;;;;;0.67;0.67;;;;;31.05;48.91;101153.69;5019399;28;45276;-68
2022/08/04 10:32:18;;;;;;;;;1.00;1.00;;;;;31.13;48.36;101141.94;5014738;28;45823;-68
2022/08/04 10:35:00;;;;;;;;;1.00;1.00;;;;;31.18;47.90;101140.00;5015663;28;45325;-68
2022/08/04 10:37:39;;;;;;;;;1.33;1.33;;;;;31.45;47.78;101145.41;5021920;28;45343;-67
2022/08/04 10:43:04;;;;;;;;;3.00;3.00;;;;;32.31;46.19;101137.06;5023925;28;45485;-68
2022/08/04 10:45:40;;;;;;;;;3.00;1.33;;;;;33.08;43.99;101141.38;5022624;28;45313;-68
2022/08/04 10:48:15;;;;;;;;;1.00;1.00;;;;;33.69;41.66;101140.19;5021584;28;45472;-69
2022/08/04 10:50:49;;;;;;;;;1.67;1.67;;;;;32.63;43.24;101138.72;5029011;28;45566;-68
2022/08/04 10:53:19;;;;;;;;;2.67;1.00;;;;;32.39;44.15;101130.88;5021067;28;45493;-68
2022/08/04 10:55:51;;;;;;;;;5.00;5.00;;;;;33.00;42.69;101133.53;5021920;28;46224;-68
2022/08/04 10:58:21;;;;;;;;;6.33;6.33;;;;;33.15;42.64;101118.53;5020602;28;45448;-67
2022/08/04 11:00:48;;;;;;;;;2.33;2.33;;;;;33.70;41.29;101131.44;5020786;28;45371;-67
2022/08/04 11:03:22;;;;;;;;;1.33;1.33;;;;;33.89;40.59;101134.44;5020464;28;45319;-69
2022/08/04 11:05:54;;;;;;;;;1.00;1.00;;;;;34.29;38.91;101128.47;5020104;28;46778;-68
2022/08/04 11:08:25;;;;;;;;;3.00;3.00;;;;;34.83;38.44;101115.19;5020625;28;45292;-68
2022/08/04 11:11:04;;;;;;;;;2.67;2.00;;;;;34.75;38.49;101117.56;5018461;28;47770;-74
2022/08/04 11:13:52;;;;;;;;;1.00;1.00;;;;;33.80;39.62;101108.88;5018355;28;46059;-73
2022/08/04 11:16:25;;;;;;;;;2.00;2.00;;;;;33.52;40.92;101123.72;5009595;28;46596;-74
2022/08/04 11:19:28;;;;;;;;;1.00;1.00;;;;;34.09;38.87;101131.44;5022131;28;45418;-73
2022/08/04 11:22:14;;;;;;;;;4.33;2.00;;;;;33.76;39.92;101135.94;5014895;28;45580;-73
2022/08/04 11:24:44;;;;;;;;;3.00;3.00;;;;;34.69;37.55;101138.47;5024102;28;45451;-70
2022/08/04 11:27:28;;;;;;;;;1.67;1.67;;;;;35.00;37.31;101109.88;5015849;28;46681;-69
2022/08/04 11:30:02;;;;;;;;;2.33;2.33;;;;;35.47;36.19;101121.09;5032024;28;45381;-75
2022/08/04 11:32:41;;;;;;;;;4.67;4.67;;;;;35.51;36.27;101115.66;5012678;28;45327;-73
2022/08/04 11:35:14;;;;;;;;;5.00;3.33;;;;;34.92;37.03;101121.88;5022257;28;45503;-72
2022/08/04 11:38:01;;;;;;;;;2.00;2.00;;;;;35.19;36.74;101122.06;5020888;28;46349;-74
2022/08/04 11:40:33;;;;;;;;;2.00;2.00;;;;;36.02;35.62;101115.69;5019332;28;45469;-71
2022/08/04 11:43:05;;;;;;;;;3.67;1.67;;;;;36.32;33.66;101127.66;5017636;28;45525;-67
2022/08/04 11:45:37;;;;;;;;;2.67;2.67;;;;;36.31;34.84;101126.84;5019901;28;45365;-68
2022/08/04 11:48:10;;;;;;;;;8.00;6.50;;;;;35.67;35.44;101119.94;5014590;28;45476;-67
2022/08/04 11:50:48;;;;;;;;;2.67;2.67;;;;;36.25;35.24;101137.38;5017330;28;45343;-67
2022/08/04 11:53:18;;;;;;;;;4.00;3.33;;;;;36.67;33.58;101126.19;5012494;28;45330;-68
2022/08/04 11:55:45;;;;;;;;;11.50;11.50;;;;;36.74;33.36;101133.09;5017181;28;45371;-69
2022/08/04 11:58:11;;;;;;;;;3.33;3.33;;;;;36.63;33.25;101126.75;5017611;28;45375;-67
2022/08/04 12:00:45;;;;;;;;;4.67;4.00;;;;;37.45;32.78;101128.72;5021496;28;45518;-67
2022/08/04 12:03:10;;;;;;;;;3.67;3.67;;;;;37.93;32.47;101126.16;5017255;28;45430;-67
2022/08/04 12:06:20;;;;;;;;;4.33;4.33;;;;;37.44;32.05;101124.22;5021477;28;45354;-67
2022/08/04 12:09:03;;;;;;;;;3.00;3.00;;;;;37.20;32.34;101134.97;4966460;28;46241;-67
2022/08/04 12:11:31;;;;;;;;;3.33;2.00;;;;;37.52;31.97;101120.63;4964610;28;46217;-68
2022/08/04 12:14:28;;;;;;;;;3.00;3.00;;;;;36.68;32.72;101134.34;4997765;28;45511;-70